sensor_id;sensor_type;location;lat;lon;timestamp;temperature;humidity
4002;DHT22;2015;48.670;9.060;2022-12-29T00:00:16;5.40;99.90
4002;DHT22;2015;48.670;9.060;2022-12-29T00:02:48;5.50;99.90
4002;DHT22;2015;48.670;9.060;2022-12-29T00:05:20;5.50;99.90
4002;DHT22;2015;48.670;9.060;2022-12-29T00:07:52;5.70;99.90
4002;DHT22;2015;48.670;9.060;2022-12-29T00:10:24;5.80;99.90
4002;DHT22;2015;48.670;9.060;2022-12-29T00:12:55;5.90;99.90
4002;DHT22;2015;48.670;9.060;2022-12-29T00:15:46;5.90;99.90
4002;DHT22;2015;48.670;9.060;2022-12-29T00:18:18;6.00;99.90
4002;DHT22;2015;48.670;9.060;2022-12-29T00:20:49;6.00;99.90
4002;DHT22;2015;48.670;9.060;2022-12-29T00:23:44;6.10;99.90
4002;DHT22;2015;48.670;9.060;2022-12-29T00:26:35;6.50;99.90
4002;DHT22;2015;48.670;9.060;2022-12-29T00:29:25;6.50;99.90
4002;DHT22;2015;48.670;9.060;2022-12-29T00:32:16;6.60;99.90
4002;DHT22;2015;48.670;9.060;2022-12-29T00:35:10;6.60;99.90
4002;DHT22;2015;48.670;9.060;2022-12-29T00:37:44;6.60;99.90
4002;DHT22;2015;48.670;9.060;2022-12-29T00:40:36;6.60;99.90
4002;DHT22;2015;48.670;9.060;2022-12-29T00:43:26;6.80;99.90
4002;DHT22;2015;48.670;9.060;2022-12-29T00:46:17;7.00;99.90
4002;DHT22;2015;48.670;9.060;2022-12-29T00:48:51;7.00;99.90
4002;DHT22;2015;48.670;9.060;2022-12-29T00:51:41;7.00;99.90
4002;DHT22;2015;48.670;9.060;2022-12-29T00:54:13;7.10;99.90
4002;DHT22;2015;48.670;9.060;2022-12-29T00:56:47;7.40;99.90
4002;DHT22;2015;48.670;9.060;2022-12-29T00:59:19;7.50;99.90
4002;DHT22;2015;48.670;9.060;2022-12-29T01:01:52;7.50;99.90
4002;DHT22;2015;48.670;9.060;2022-12-29T01:04:26;7.60;99.90
4002;DHT22;2015;48.670;9.060;2022-12-29T01:06:58;7.60;99.90
4002;DHT22;2015;48.670;9.060;2022-12-29T01:09:31;7.60;99.90
4002;DHT22;2015;48.670;9.060;2022-12-29T01:12:21;7.40;99.90
4002;DHT22;2015;48.670;9.060;2022-12-29T01:15:14;7.20;99.90
4002;DHT22;2015;48.670;9.060;2022-12-29T01:17:46;7.10;99.90
4002;DHT22;2015;48.670;9.060;2022-12-29T01:20:18;7.10;99.90
4002;DHT22;2015;48.670;9.060;2022-12-29T01:22:50;7.30;99.90
4002;DHT22;2015;48.670;9.060;2022-12-29T01:25:22;7.60;99.90
4002;DHT22;2015;48.670;9.060;2022-12-29T01:27:53;7.60;99.90
4002;DHT22;2015;48.670;9.060;2022-12-29T01:30:25;7.80;99.90
4002;DHT22;2015;48.670;9.060;2022-12-29T01:32:57;7.70;99.90
4002;DHT22;2015;48.670;9.060;2022-12-29T01:35:29;7.70;99.90
4002;DHT22;2015;48.670;9.060;2022-12-29T01:38:00;7.60;99.90
4002;DHT22;2015;48.670;9.060;2022-12-29T01:40:32;7.60;99.90
4002;DHT22;2015;48.670;9.060;2022-12-29T01:43:08;7.50;99.90
4002;DHT22;2015;48.670;9.060;2022-12-29T01:45:48;7.50;99.90
4002;DHT22;2015;48.670;9.060;2022-12-29T01:48:22;7.50;99.90
4002;DHT22;2015;48.670;9.060;2022-12-29T01:50:54;7.40;99.90
4002;DHT22;2015;48.670;9.060;2022-12-29T01:53:28;7.40;99.90
4002;DHT22;2015;48.670;9.060;2022-12-29T01:56:05;7.80;99.90
4002;DHT22;2015;48.670;9.060;2022-12-29T01:58:41;8.00;99.90
4002;DHT22;2015;48.670;9.060;2022-12-29T02:01:18;8.10;99.90
4002;DHT22;2015;48.670;9.060;2022-12-29T02:03:51;8.20;99.90
4002;DHT22;2015;48.670;9.060;2022-12-29T02:06:33;8.00;99.90
4002;DHT22;2015;48.670;9.060;2022-12-29T02:09:06;8.20;99.90
4002;DHT22;2015;48.670;9.060;2022-12-29T02:11:38;8.10;99.90
4002;DHT22;2015;48.670;9.060;2022-12-29T02:14:11;7.90;99.90
4002;DHT22;2015;48.670;9.060;2022-12-29T02:17:11;7.70;99.90
4002;DHT22;2015;48.670;9.060;2022-12-29T02:22:34;7.50;99.90
4002;DHT22;2015;48.670;9.060;2022-12-29T02:31:04;7.40;99.90
4002;DHT22;2015;48.670;9.060;2022-12-29T02:36:37;7.80;99.90
4002;DHT22;2015;48.670;9.060;2022-12-29T02:39:28;8.00;99.90
4002;DHT22;2015;48.670;9.060;2022-12-29T02:45:14;7.80;99.90
4002;DHT22;2015;48.670;9.060;2022-12-29T02:51:00;7.80;99.90
4002;DHT22;2015;48.670;9.060;2022-12-29T02:53:34;7.80;99.90
4002;DHT22;2015;48.670;9.060;2022-12-29T02:56:25;7.80;99.90
4002;DHT22;2015;48.670;9.060;2022-12-29T02:58:57;7.80;99.90
4002;DHT22;2015;48.670;9.060;2022-12-29T03:07:20;7.60;99.90
4002;DHT22;2015;48.670;9.060;2022-12-29T03:12:53;7.50;99.90
4002;DHT22;2015;48.670;9.060;2022-12-29T03:15:55;7.40;99.90
4002;DHT22;2015;48.670;9.060;2022-12-29T03:21:55;7.30;99.90
4002;DHT22;2015;48.670;9.060;2022-12-29T03:24:57;7.40;99.90
4002;DHT22;2015;48.670;9.060;2022-12-29T03:27:34;7.80;99.90
4002;DHT22;2015;48.670;9.060;2022-12-29T03:30:08;8.40;99.90
4002;DHT22;2015;48.670;9.060;2022-12-29T03:33:04;8.80;99.90
4002;DHT22;2015;48.670;9.060;2022-12-29T03:35:41;9.10;99.90
4002;DHT22;2015;48.670;9.060;2022-12-29T03:38:29;9.50;99.90
4002;DHT22;2015;48.670;9.060;2022-12-29T03:41:07;9.80;99.90
4002;DHT22;2015;48.670;9.060;2022-12-29T03:43:40;9.90;99.90
4002;DHT22;2015;48.670;9.060;2022-12-29T03:46:12;10.00;99.90
4002;DHT22;2015;48.670;9.060;2022-12-29T03:48:44;10.00;99.90
4002;DHT22;2015;48.670;9.060;2022-12-29T03:51:15;10.00;99.90
4002;DHT22;2015;48.670;9.060;2022-12-29T03:53:49;10.00;99.90
4002;DHT22;2015;48.670;9.060;2022-12-29T03:56:21;10.00;99.90
4002;DHT22;2015;48.670;9.060;2022-12-29T03:58:53;9.90;99.90
4002;DHT22;2015;48.670;9.060;2022-12-29T04:01:24;9.80;99.90
4002;DHT22;2015;48.670;9.060;2022-12-29T04:03:56;9.70;99.90
4002;DHT22;2015;48.670;9.060;2022-12-29T04:06:28;9.70;99.90
4002;DHT22;2015;48.670;9.060;2022-12-29T04:09:00;9.60;99.90
4002;DHT22;2015;48.670;9.060;2022-12-29T04:11:32;9.60;99.90
4002;DHT22;2015;48.670;9.060;2022-12-29T04:14:05;9.50;99.90
4002;DHT22;2015;48.670;9.060;2022-12-29T04:16:38;9.60;99.90
4002;DHT22;2015;48.670;9.060;2022-12-29T04:19:12;9.60;99.90
4002;DHT22;2015;48.670;9.060;2022-12-29T04:21:44;9.60;99.90
4002;DHT22;2015;48.670;9.060;2022-12-29T04:24:15;9.60;99.90
4002;DHT22;2015;48.670;9.060;2022-12-29T04:26:49;9.70;99.90
4002;DHT22;2015;48.670;9.060;2022-12-29T04:29:21;9.70;99.90
4002;DHT22;2015;48.670;9.060;2022-12-29T04:31:53;9.70;99.90
4002;DHT22;2015;48.670;9.060;2022-12-29T04:34:24;9.80;99.90
4002;DHT22;2015;48.670;9.060;2022-12-29T04:36:56;9.70;99.90
4002;DHT22;2015;48.670;9.060;2022-12-29T04:39:28;9.80;99.90
4002;DHT22;2015;48.670;9.060;2022-12-29T04:42:00;9.80;99.90
4002;DHT22;2015;48.670;9.060;2022-12-29T04:44:31;9.80;99.90
4002;DHT22;2015;48.670;9.060;2022-12-29T04:47:03;9.70;99.90
4002;DHT22;2015;48.670;9.060;2022-12-29T04:49:35;9.60;99.90
4002;DHT22;2015;48.670;9.060;2022-12-29T04:52:07;9.60;99.90
4002;DHT22;2015;48.670;9.060;2022-12-29T04:54:39;9.60;99.90
4002;DHT22;2015;48.670;9.060;2022-12-29T04:57:11;9.60;99.90
4002;DHT22;2015;48.670;9.060;2022-12-29T04:59:43;9.60;99.90
4002;DHT22;2015;48.670;9.060;2022-12-29T05:02:15;9.70;99.90
4002;DHT22;2015;48.670;9.060;2022-12-29T05:04:49;9.70;99.90
4002;DHT22;2015;48.670;9.060;2022-12-29T05:07:21;9.80;99.90
4002;DHT22;2015;48.670;9.060;2022-12-29T05:09:52;9.80;99.90
4002;DHT22;2015;48.670;9.060;2022-12-29T05:12:24;9.80;99.90
4002;DHT22;2015;48.670;9.060;2022-12-29T05:14:56;9.80;99.90
4002;DHT22;2015;48.670;9.060;2022-12-29T05:17:28;9.80;99.90
4002;DHT22;2015;48.670;9.060;2022-12-29T05:20:00;9.80;99.90
4002;DHT22;2015;48.670;9.060;2022-12-29T05:22:32;9.80;99.90
4002;DHT22;2015;48.670;9.060;2022-12-29T05:25:04;9.90;99.90
4002;DHT22;2015;48.670;9.060;2022-12-29T05:27:36;9.80;99.90
4002;DHT22;2015;48.670;9.060;2022-12-29T05:30:09;9.80;99.90
4002;DHT22;2015;48.670;9.060;2022-12-29T05:32:41;9.80;99.90
4002;DHT22;2015;48.670;9.060;2022-12-29T05:35:12;9.80;99.90
4002;DHT22;2015;48.670;9.060;2022-12-29T05:37:45;9.80;99.90
4002;DHT22;2015;48.670;9.060;2022-12-29T05:40:17;9.80;99.90
4002;DHT22;2015;48.670;9.060;2022-12-29T05:42:49;9.80;99.90
4002;DHT22;2015;48.670;9.060;2022-12-29T05:45:20;9.80;99.90
4002;DHT22;2015;48.670;9.060;2022-12-29T05:47:52;9.80;99.90
4002;DHT22;2015;48.670;9.060;2022-12-29T05:50:24;9.80;99.90
4002;DHT22;2015;48.670;9.060;2022-12-29T05:52:55;9.90;99.90
4002;DHT22;2015;48.670;9.060;2022-12-29T05:55:27;10.00;99.90
4002;DHT22;2015;48.670;9.060;2022-12-29T05:57:59;9.90;99.90
4002;DHT22;2015;48.670;9.060;2022-12-29T06:00:31;10.00;99.90
4002;DHT22;2015;48.670;9.060;2022-12-29T06:03:04;10.10;99.90
4002;DHT22;2015;48.670;9.060;2022-12-29T06:05:36;10.10;99.90
4002;DHT22;2015;48.670;9.060;2022-12-29T06:08:08;10.10;99.90
4002;DHT22;2015;48.670;9.060;2022-12-29T06:10:39;10.10;99.90
4002;DHT22;2015;48.670;9.060;2022-12-29T06:13:11;10.00;99.90
4002;DHT22;2015;48.670;9.060;2022-12-29T06:15:43;10.10;99.90
4002;DHT22;2015;48.670;9.060;2022-12-29T06:18:15;10.20;99.90
4002;DHT22;2015;48.670;9.060;2022-12-29T06:20:51;10.10;99.90
4002;DHT22;2015;48.670;9.060;2022-12-29T06:23:22;10.00;99.90
4002;DHT22;2015;48.670;9.060;2022-12-29T06:25:54;10.00;99.90
4002;DHT22;2015;48.670;9.060;2022-12-29T06:28:26;9.90;99.90
4002;DHT22;2015;48.670;9.060;2022-12-29T06:30:58;9.90;99.90
4002;DHT22;2015;48.670;9.060;2022-12-29T06:33:30;9.90;99.90
4002;DHT22;2015;48.670;9.060;2022-12-29T06:36:01;9.90;99.90
4002;DHT22;2015;48.670;9.060;2022-12-29T06:38:33;9.90;99.90
4002;DHT22;2015;48.670;9.060;2022-12-29T06:41:06;9.90;99.90
4002;DHT22;2015;48.670;9.060;2022-12-29T06:43:38;9.90;99.90
4002;DHT22;2015;48.670;9.060;2022-12-29T06:46:10;9.90;99.90
4002;DHT22;2015;48.670;9.060;2022-12-29T06:48:42;9.90;99.90
4002;DHT22;2015;48.670;9.060;2022-12-29T06:51:13;9.90;99.90
4002;DHT22;2015;48.670;9.060;2022-12-29T06:53:45;9.90;99.90
4002;DHT22;2015;48.670;9.060;2022-12-29T06:56:17;10.00;99.90
4002;DHT22;2015;48.670;9.060;2022-12-29T06:58:49;10.00;99.90
4002;DHT22;2015;48.670;9.060;2022-12-29T07:01:21;9.90;99.90
4002;DHT22;2015;48.670;9.060;2022-12-29T07:03:53;9.90;99.90
4002;DHT22;2015;48.670;9.060;2022-12-29T07:06:24;9.90;99.90
4002;DHT22;2015;48.670;9.060;2022-12-29T07:08:56;9.90;99.90
4002;DHT22;2015;48.670;9.060;2022-12-29T07:11:28;9.90;99.90
4002;DHT22;2015;48.670;9.060;2022-12-29T07:14:01;9.90;99.90
4002;DHT22;2015;48.670;9.060;2022-12-29T07:16:33;9.90;99.90
4002;DHT22;2015;48.670;9.060;2022-12-29T07:19:05;9.80;99.90
4002;DHT22;2015;48.670;9.060;2022-12-29T07:21:37;9.80;99.90
4002;DHT22;2015;48.670;9.060;2022-12-29T07:24:09;9.80;99.90
4002;DHT22;2015;48.670;9.060;2022-12-29T07:26:41;9.80;99.90
4002;DHT22;2015;48.670;9.060;2022-12-29T07:29:13;9.80;99.90
4002;DHT22;2015;48.670;9.060;2022-12-29T07:31:45;9.70;99.90
4002;DHT22;2015;48.670;9.060;2022-12-29T07:34:17;9.80;99.90
4002;DHT22;2015;48.670;9.060;2022-12-29T07:36:48;9.90;99.90
4002;DHT22;2015;48.670;9.060;2022-12-29T07:39:20;9.70;99.90
4002;DHT22;2015;48.670;9.060;2022-12-29T07:41:52;9.70;99.90
4002;DHT22;2015;48.670;9.060;2022-12-29T07:44:24;9.80;99.90
4002;DHT22;2015;48.670;9.060;2022-12-29T07:46:55;9.80;99.90
4002;DHT22;2015;48.670;9.060;2022-12-29T07:49:29;9.90;99.90
4002;DHT22;2015;48.670;9.060;2022-12-29T07:52:01;9.90;99.90
4002;DHT22;2015;48.670;9.060;2022-12-29T07:54:33;9.90;99.90
4002;DHT22;2015;48.670;9.060;2022-12-29T07:57:05;10.00;99.90
4002;DHT22;2015;48.670;9.060;2022-12-29T07:59:37;10.00;99.90
4002;DHT22;2015;48.670;9.060;2022-12-29T08:02:10;10.10;99.90
4002;DHT22;2015;48.670;9.060;2022-12-29T08:04:43;10.10;99.90
4002;DHT22;2015;48.670;9.060;2022-12-29T08:07:15;10.10;99.90
4002;DHT22;2015;48.670;9.060;2022-12-29T08:09:46;10.10;99.90
4002;DHT22;2015;48.670;9.060;2022-12-29T08:12:18;10.10;99.90
4002;DHT22;2015;48.670;9.060;2022-12-29T08:14:50;10.10;99.90
4002;DHT22;2015;48.670;9.060;2022-12-29T08:17:22;10.10;99.90
4002;DHT22;2015;48.670;9.060;2022-12-29T08:19:54;10.10;99.90
4002;DHT22;2015;48.670;9.060;2022-12-29T08:22:26;10.10;99.90
4002;DHT22;2015;48.670;9.060;2022-12-29T08:24:57;10.20;99.90
4002;DHT22;2015;48.670;9.060;2022-12-29T08:27:29;10.20;99.90
4002;DHT22;2015;48.670;9.060;2022-12-29T08:30:01;10.20;99.90
4002;DHT22;2015;48.670;9.060;2022-12-29T08:32:33;10.20;99.90
4002;DHT22;2015;48.670;9.060;2022-12-29T08:35:05;10.20;99.90
4002;DHT22;2015;48.670;9.060;2022-12-29T08:37:37;10.20;99.90
4002;DHT22;2015;48.670;9.060;2022-12-29T08:40:09;10.20;99.90
4002;DHT22;2015;48.670;9.060;2022-12-29T08:42:41;10.20;99.90
4002;DHT22;2015;48.670;9.060;2022-12-29T08:45:13;10.20;99.90
4002;DHT22;2015;48.670;9.060;2022-12-29T08:47:45;10.20;99.90
4002;DHT22;2015;48.670;9.060;2022-12-29T08:50:16;10.20;99.90
4002;DHT22;2015;48.670;9.060;2022-12-29T08:52:49;10.30;99.90
4002;DHT22;2015;48.670;9.060;2022-12-29T08:55:21;10.30;99.90
4002;DHT22;2015;48.670;9.060;2022-12-29T08:57:54;10.20;99.90
4002;DHT22;2015;48.670;9.060;2022-12-29T09:00:26;10.20;99.90
4002;DHT22;2015;48.670;9.060;2022-12-29T09:02:58;10.10;99.90
4002;DHT22;2015;48.670;9.060;2022-12-29T09:05:30;10.10;99.90
4002;DHT22;2015;48.670;9.060;2022-12-29T09:08:01;10.10;99.90
4002;DHT22;2015;48.670;9.060;2022-12-29T09:10:33;10.10;99.90
4002;DHT22;2015;48.670;9.060;2022-12-29T09:13:05;10.10;99.90
4002;DHT22;2015;48.670;9.060;2022-12-29T09:15:37;10.10;99.90
4002;DHT22;2015;48.670;9.060;2022-12-29T09:18:10;10.30;99.90
4002;DHT22;2015;48.670;9.060;2022-12-29T09:20:56;10.40;99.90
4002;DHT22;2015;48.670;9.060;2022-12-29T09:23:28;10.60;99.90
4002;DHT22;2015;48.670;9.060;2022-12-29T09:26:00;10.60;99.90
4002;DHT22;2015;48.670;9.060;2022-12-29T09:28:32;10.60;99.90
4002;DHT22;2015;48.670;9.060;2022-12-29T09:31:04;10.70;99.90
4002;DHT22;2015;48.670;9.060;2022-12-29T09:33:36;10.70;99.90
4002;DHT22;2015;48.670;9.060;2022-12-29T09:36:08;10.80;99.90
4002;DHT22;2015;48.670;9.060;2022-12-29T09:38:40;10.90;99.90
4002;DHT22;2015;48.670;9.060;2022-12-29T09:41:35;11.00;99.90
4002;DHT22;2015;48.670;9.060;2022-12-29T09:44:23;11.10;99.90
4002;DHT22;2015;48.670;9.060;2022-12-29T09:46:57;11.10;99.90
4002;DHT22;2015;48.670;9.060;2022-12-29T09:49:49;11.10;99.90
4002;DHT22;2015;48.670;9.060;2022-12-29T09:53:08;11.20;99.90
4002;DHT22;2015;48.670;9.060;2022-12-29T09:55:25;11.30;99.90
4002;DHT22;2015;48.670;9.060;2022-12-29T09:58:06;11.40;99.90
4002;DHT22;2015;48.670;9.060;2022-12-29T10:01:02;11.40;99.90
4002;DHT22;2015;48.670;9.060;2022-12-29T10:09:42;11.60;99.90
4002;DHT22;2015;48.670;9.060;2022-12-29T10:12:26;11.60;99.90
4002;DHT22;2015;48.670;9.060;2022-12-29T10:23:26;11.60;99.90
4002;DHT22;2015;48.670;9.060;2022-12-29T10:26:01;11.80;99.90
4002;DHT22;2015;48.670;9.060;2022-12-29T10:28:38;11.90;99.90
4002;DHT22;2015;48.670;9.060;2022-12-29T10:31:23;12.00;99.90
4002;DHT22;2015;48.670;9.060;2022-12-29T10:34:00;12.10;99.90
4002;DHT22;2015;48.670;9.060;2022-12-29T10:36:39;12.10;99.90
4002;DHT22;2015;48.670;9.060;2022-12-29T10:42:11;12.00;99.90
4002;DHT22;2015;48.670;9.060;2022-12-29T10:44:45;12.90;99.90
4002;DHT22;2015;48.670;9.060;2022-12-29T10:47:20;14.00;99.90
4002;DHT22;2015;48.670;9.060;2022-12-29T10:49:53;13.90;99.90
4002;DHT22;2015;48.670;9.060;2022-12-29T10:52:26;13.00;99.90
4002;DHT22;2015;48.670;9.060;2022-12-29T10:55:21;12.40;99.90
4002;DHT22;2015;48.670;9.060;2022-12-29T10:57:55;12.10;99.90
4002;DHT22;2015;48.670;9.060;2022-12-29T11:00:28;11.90;99.90
4002;DHT22;2015;48.670;9.060;2022-12-29T11:05:57;11.90;99.90
4002;DHT22;2015;48.670;9.060;2022-12-29T11:08:36;12.00;99.90
4002;DHT22;2015;48.670;9.060;2022-12-29T11:11:10;12.10;99.90
4002;DHT22;2015;48.670;9.060;2022-12-29T11:14:01;12.10;99.90
4002;DHT22;2015;48.670;9.060;2022-12-29T11:16:34;12.10;99.90
4002;DHT22;2015;48.670;9.060;2022-12-29T11:19:23;12.10;99.90
4002;DHT22;2015;48.670;9.060;2022-12-29T11:21:55;12.10;99.90
4002;DHT22;2015;48.670;9.060;2022-12-29T11:24:28;12.10;99.90
4002;DHT22;2015;48.670;9.060;2022-12-29T11:27:21;12.00;99.90
4002;DHT22;2015;48.670;9.060;2022-12-29T11:29:54;11.80;99.90
4002;DHT22;2015;48.670;9.060;2022-12-29T11:32:27;11.80;99.90
4002;DHT22;2015;48.670;9.060;2022-12-29T11:35:04;11.80;99.90
4002;DHT22;2015;48.670;9.060;2022-12-29T11:37:39;11.90;99.90
4002;DHT22;2015;48.670;9.060;2022-12-29T11:40:19;12.10;99.90
4002;DHT22;2015;48.670;9.060;2022-12-29T11:42:59;12.30;99.90
4002;DHT22;2015;48.670;9.060;2022-12-29T11:45:35;12.50;99.90
4002;DHT22;2015;48.670;9.060;2022-12-29T11:48:20;12.40;99.90
4002;DHT22;2015;48.670;9.060;2022-12-29T11:50:57;12.20;99.90
4002;DHT22;2015;48.670;9.060;2022-12-29T11:53:45;12.10;99.90
4002;DHT22;2015;48.670;9.060;2022-12-29T11:56:39;11.90;99.90
4002;DHT22;2015;48.670;9.060;2022-12-29T11:59:51;11.80;99.90
4002;DHT22;2015;48.670;9.060;2022-12-29T12:02:44;11.60;99.90
4002;DHT22;2015;48.670;9.060;2022-12-29T12:08:12;11.50;99.90
4002;DHT22;2015;48.670;9.060;2022-12-29T12:11:03;11.50;99.90
4002;DHT22;2015;48.670;9.060;2022-12-29T12:13:46;11.40;99.90
4002;DHT22;2015;48.670;9.060;2022-12-29T12:16:22;11.40;99.90
4002;DHT22;2015;48.670;9.060;2022-12-29T12:19:20;11.40;99.90
4002;DHT22;2015;48.670;9.060;2022-12-29T12:22:01;11.30;99.90
4002;DHT22;2015;48.670;9.060;2022-12-29T12:24:45;11.20;99.90
4002;DHT22;2015;48.670;9.060;2022-12-29T12:27:20;11.00;99.90
4002;DHT22;2015;48.670;9.060;2022-12-29T12:30:01;10.80;99.90
4002;DHT22;2015;48.670;9.060;2022-12-29T12:35:21;10.50;99.90
4002;DHT22;2015;48.670;9.060;2022-12-29T12:41:21;10.40;99.90
4002;DHT22;2015;48.670;9.060;2022-12-29T12:44:15;10.30;99.90
4002;DHT22;2015;48.670;9.060;2022-12-29T12:53:07;10.40;99.90
4002;DHT22;2015;48.670;9.060;2022-12-29T12:58:36;10.60;99.90
4002;DHT22;2015;48.670;9.060;2022-12-29T13:07:02;10.60;99.90
4002;DHT22;2015;48.670;9.060;2022-12-29T13:15:40;10.80;99.90
4002;DHT22;2015;48.670;9.060;2022-12-29T13:26:21;10.90;99.90
4002;DHT22;2015;48.670;9.060;2022-12-29T13:38:11;10.80;99.90
4002;DHT22;2015;48.670;9.060;2022-12-29T13:40:47;10.80;99.90
4002;DHT22;2015;48.670;9.060;2022-12-29T13:43:20;10.80;99.90
4002;DHT22;2015;48.670;9.060;2022-12-29T13:46:00;10.80;99.90
4002;DHT22;2015;48.670;9.060;2022-12-29T13:48:45;10.80;99.90
4002;DHT22;2015;48.670;9.060;2022-12-29T13:51:19;10.90;99.90
4002;DHT22;2015;48.670;9.060;2022-12-29T13:59:50;10.90;99.90
4002;DHT22;2015;48.670;9.060;2022-12-29T14:05:05;11.00;99.90
4002;DHT22;2015;48.670;9.060;2022-12-29T14:07:38;11.00;99.90
4002;DHT22;2015;48.670;9.060;2022-12-29T14:10:37;11.00;99.90
4002;DHT22;2015;48.670;9.060;2022-12-29T14:13:14;11.00;99.90
4002;DHT22;2015;48.670;9.060;2022-12-29T14:16:06;11.00;99.90
4002;DHT22;2015;48.670;9.060;2022-12-29T14:18:43;10.90;99.90
4002;DHT22;2015;48.670;9.060;2022-12-29T14:23:49;10.90;99.90
4002;DHT22;2015;48.670;9.060;2022-12-29T14:31:55;11.00;99.90
4002;DHT22;2015;48.670;9.060;2022-12-29T14:34:29;10.90;99.90
4002;DHT22;2015;48.670;9.060;2022-12-29T14:37:02;10.90;99.90
4002;DHT22;2015;48.670;9.060;2022-12-29T14:39:45;10.90;99.90
4002;DHT22;2015;48.670;9.060;2022-12-29T14:42:19;10.80;99.90
4002;DHT22;2015;48.670;9.060;2022-12-29T14:47:45;10.80;99.90
4002;DHT22;2015;48.670;9.060;2022-12-29T14:52:58;10.70;99.90
4002;DHT22;2015;48.670;9.060;2022-12-29T14:55:47;10.70;99.90
4002;DHT22;2015;48.670;9.060;2022-12-29T14:58:38;10.70;99.90
4002;DHT22;2015;48.670;9.060;2022-12-29T15:01:47;10.70;99.90
4002;DHT22;2015;48.670;9.060;2022-12-29T15:04:25;10.70;99.90
4002;DHT22;2015;48.670;9.060;2022-12-29T15:06:59;10.60;99.90
4002;DHT22;2015;48.670;9.060;2022-12-29T15:09:46;10.60;99.90
4002;DHT22;2015;48.670;9.060;2022-12-29T15:12:45;10.70;99.90
4002;DHT22;2015;48.670;9.060;2022-12-29T15:15:23;10.70;99.90
4002;DHT22;2015;48.670;9.060;2022-12-29T15:17:55;10.70;99.90
4002;DHT22;2015;48.670;9.060;2022-12-29T15:20:29;10.70;99.90
4002;DHT22;2015;48.670;9.060;2022-12-29T15:23:08;10.70;99.90
4002;DHT22;2015;48.670;9.060;2022-12-29T15:28:26;10.60;99.90
4002;DHT22;2015;48.670;9.060;2022-12-29T15:31:06;10.50;99.90
4002;DHT22;2015;48.670;9.060;2022-12-29T15:33:48;10.50;99.90
4002;DHT22;2015;48.670;9.060;2022-12-29T15:36:26;10.50;99.90
4002;DHT22;2015;48.670;9.060;2022-12-29T15:38:58;10.50;99.90
4002;DHT22;2015;48.670;9.060;2022-12-29T15:44:35;10.40;99.90
4002;DHT22;2015;48.670;9.060;2022-12-29T15:47:17;10.50;99.90
4002;DHT22;2015;48.670;9.060;2022-12-29T15:49:53;10.50;99.90
4002;DHT22;2015;48.670;9.060;2022-12-29T15:52:28;10.40;99.90
4002;DHT22;2015;48.670;9.060;2022-12-29T15:55:01;10.40;99.90
4002;DHT22;2015;48.670;9.060;2022-12-29T15:57:42;10.30;99.90
4002;DHT22;2015;48.670;9.060;2022-12-29T16:00:26;10.30;99.90
4002;DHT22;2015;48.670;9.060;2022-12-29T16:03:01;10.20;99.90
4002;DHT22;2015;48.670;9.060;2022-12-29T16:05:35;10.10;99.90
4002;DHT22;2015;48.670;9.060;2022-12-29T16:08:38;10.00;99.90
4002;DHT22;2015;48.670;9.060;2022-12-29T16:11:23;9.90;99.90
4002;DHT22;2015;48.670;9.060;2022-12-29T16:13:57;9.90;99.90
4002;DHT22;2015;48.670;9.060;2022-12-29T16:16:36;10.00;99.90
4002;DHT22;2015;48.670;9.060;2022-12-29T16:21:52;10.00;99.90
4002;DHT22;2015;48.670;9.060;2022-12-29T16:24:26;9.90;99.90
4002;DHT22;2015;48.670;9.060;2022-12-29T16:27:09;9.80;99.90
4002;DHT22;2015;48.670;9.060;2022-12-29T16:29:41;9.70;99.90
4002;DHT22;2015;48.670;9.060;2022-12-29T16:40:57;9.20;99.90
4002;DHT22;2015;48.670;9.060;2022-12-29T16:43:34;9.10;99.90
4002;DHT22;2015;48.670;9.060;2022-12-29T16:46:33;9.10;99.90
4002;DHT22;2015;48.670;9.060;2022-12-29T16:49:16;9.00;99.90
4002;DHT22;2015;48.670;9.060;2022-12-29T16:51:52;9.00;99.90
4002;DHT22;2015;48.670;9.060;2022-12-29T16:54:34;9.00;99.90
4002;DHT22;2015;48.670;9.060;2022-12-29T16:57:07;8.90;99.90
4002;DHT22;2015;48.670;9.060;2022-12-29T16:59:40;8.90;99.90
4002;DHT22;2015;48.670;9.060;2022-12-29T17:02:16;8.80;99.90
4002;DHT22;2015;48.670;9.060;2022-12-29T17:04:50;8.70;99.90
4002;DHT22;2015;48.670;9.060;2022-12-29T17:07:26;8.70;99.90
4002;DHT22;2015;48.670;9.060;2022-12-29T17:09:58;8.60;99.90
4002;DHT22;2015;48.670;9.060;2022-12-29T17:12:33;8.50;99.90
4002;DHT22;2015;48.670;9.060;2022-12-29T17:15:24;8.50;99.90
4002;DHT22;2015;48.670;9.060;2022-12-29T17:17:57;8.30;99.90
4002;DHT22;2015;48.670;9.060;2022-12-29T17:20:31;8.20;99.90
4002;DHT22;2015;48.670;9.060;2022-12-29T17:23:14;8.20;99.90
4002;DHT22;2015;48.670;9.060;2022-12-29T17:25:54;8.10;99.90
4002;DHT22;2015;48.670;9.060;2022-12-29T17:28:28;8.00;99.90
4002;DHT22;2015;48.670;9.060;2022-12-29T17:31:03;8.00;99.90
4002;DHT22;2015;48.670;9.060;2022-12-29T17:33:38;8.00;99.90
4002;DHT22;2015;48.670;9.060;2022-12-29T17:36:14;8.00;99.90
4002;DHT22;2015;48.670;9.060;2022-12-29T17:38:46;7.90;99.90
4002;DHT22;2015;48.670;9.060;2022-12-29T17:41:18;7.90;99.90
4002;DHT22;2015;48.670;9.060;2022-12-29T17:43:50;7.90;99.90
4002;DHT22;2015;48.670;9.060;2022-12-29T17:46:21;7.90;99.90
4002;DHT22;2015;48.670;9.060;2022-12-29T17:48:53;7.90;99.90
4002;DHT22;2015;48.670;9.060;2022-12-29T17:51:25;7.90;99.90
4002;DHT22;2015;48.670;9.060;2022-12-29T17:53:57;7.90;99.90
4002;DHT22;2015;48.670;9.060;2022-12-29T17:56:29;7.90;99.90
4002;DHT22;2015;48.670;9.060;2022-12-29T17:59:01;7.90;99.90
4002;DHT22;2015;48.670;9.060;2022-12-29T18:01:33;7.80;99.90
4002;DHT22;2015;48.670;9.060;2022-12-29T18:04:16;7.90;99.90
4002;DHT22;2015;48.670;9.060;2022-12-29T18:06:47;7.90;99.90
4002;DHT22;2015;48.670;9.060;2022-12-29T18:09:19;7.90;99.90
4002;DHT22;2015;48.670;9.060;2022-12-29T18:11:53;7.90;99.90
4002;DHT22;2015;48.670;9.060;2022-12-29T18:14:24;7.90;99.90
4002;DHT22;2015;48.670;9.060;2022-12-29T18:16:56;7.90;99.90
4002;DHT22;2015;48.670;9.060;2022-12-29T18:19:28;7.90;99.90
4002;DHT22;2015;48.670;9.060;2022-12-29T18:22:07;7.90;99.90
4002;DHT22;2015;48.670;9.060;2022-12-29T18:24:39;7.90;99.90
4002;DHT22;2015;48.670;9.060;2022-12-29T18:27:13;7.90;99.90
4002;DHT22;2015;48.670;9.060;2022-12-29T18:29:45;8.00;99.90
4002;DHT22;2015;48.670;9.060;2022-12-29T18:32:17;8.00;99.90
4002;DHT22;2015;48.670;9.060;2022-12-29T18:34:49;8.10;99.90
4002;DHT22;2015;48.670;9.060;2022-12-29T18:37:21;8.10;99.90
4002;DHT22;2015;48.670;9.060;2022-12-29T18:39:53;8.10;99.90
4002;DHT22;2015;48.670;9.060;2022-12-29T18:42:24;8.10;99.90
4002;DHT22;2015;48.670;9.060;2022-12-29T18:44:56;8.10;99.90
4002;DHT22;2015;48.670;9.060;2022-12-29T18:47:28;8.10;99.90
4002;DHT22;2015;48.670;9.060;2022-12-29T18:50:01;8.10;99.90
4002;DHT22;2015;48.670;9.060;2022-12-29T18:52:32;8.10;99.90
4002;DHT22;2015;48.670;9.060;2022-12-29T18:55:11;8.10;99.90
4002;DHT22;2015;48.670;9.060;2022-12-29T18:57:44;8.10;99.90
4002;DHT22;2015;48.670;9.060;2022-12-29T19:00:18;8.00;99.90
4002;DHT22;2015;48.670;9.060;2022-12-29T19:02:51;8.00;99.90
4002;DHT22;2015;48.670;9.060;2022-12-29T19:05:26;8.00;99.90
4002;DHT22;2015;48.670;9.060;2022-12-29T19:07:58;8.00;99.90
4002;DHT22;2015;48.670;9.060;2022-12-29T19:10:30;8.00;99.90
4002;DHT22;2015;48.670;9.060;2022-12-29T19:13:02;8.00;99.90
4002;DHT22;2015;48.670;9.060;2022-12-29T19:15:35;8.00;99.90
4002;DHT22;2015;48.670;9.060;2022-12-29T19:18:17;8.00;99.90
4002;DHT22;2015;48.670;9.060;2022-12-29T19:21:09;7.90;99.90
4002;DHT22;2015;48.670;9.060;2022-12-29T19:23:42;7.90;99.90